sensor_id;sensor_type;location;lat;lon;timestamp;P1;durP1;ratioP1;P2;durP2;ratioP2
20203;SDS011;10261;49.010;12.034;2022-10-23T00:00:16;7.90;;;5.88;;
20203;SDS011;10261;49.010;12.034;2022-10-23T00:01:19;7.97;;;6.28;;
20203;SDS011;10261;49.010;12.034;2022-10-23T00:02:24;6.93;;;6.22;;
20203;SDS011;10261;49.010;12.034;2022-10-23T00:03:26;6.45;;;5.80;;
20203;SDS011;10261;49.010;12.034;2022-10-23T00:04:29;7.32;;;6.63;;
20203;SDS011;10261;49.010;12.034;2022-10-23T00:05:33;8.35;;;7.07;;
20203;SDS011;10261;49.010;12.034;2022-10-23T00:06:35;7.05;;;6.38;;
20203;SDS011;10261;49.010;12.034;2022-10-23T00:07:37;8.48;;;6.88;;
20203;SDS011;10261;49.010;12.034;2022-10-23T00:08:41;10.77;;;6.90;;
20203;SDS011;10261;49.010;12.034;2022-10-23T00:09:43;7.40;;;6.40;;
20203;SDS011;10261;49.010;12.034;2022-10-23T00:10:46;7.20;;;6.50;;
20203;SDS011;10261;49.010;12.034;2022-10-23T00:11:49;8.00;;;5.88;;
20203;SDS011;10261;49.010;12.034;2022-10-23T00:12:53;7.15;;;6.10;;
20203;SDS011;10261;49.010;12.034;2022-10-23T00:13:55;7.50;;;5.50;;
20203;SDS011;10261;49.010;12.034;2022-10-23T00:15:00;7.80;;;6.07;;
20203;SDS011;10261;49.010;12.034;2022-10-23T00:16:02;6.80;;;6.20;;
20203;SDS011;10261;49.010;12.034;2022-10-23T00:17:05;8.00;;;6.43;;
20203;SDS011;10261;49.010;12.034;2022-10-23T00:18:07;7.72;;;6.18;;
20203;SDS011;10261;49.010;12.034;2022-10-23T00:19:10;8.63;;;5.63;;
20203;SDS011;10261;49.010;12.034;2022-10-23T00:20:13;7.80;;;6.38;;
20203;SDS011;10261;49.010;12.034;2022-10-23T00:21:19;7.55;;;6.45;;
20203;SDS011;10261;49.010;12.034;2022-10-23T00:22:21;8.15;;;6.75;;
20203;SDS011;10261;49.010;12.034;2022-10-23T00:23:24;8.52;;;6.32;;
20203;SDS011;10261;49.010;12.034;2022-10-23T00:24:26;7.00;;;6.00;;
20203;SDS011;10261;49.010;12.034;2022-10-23T00:25:29;6.95;;;6.25;;
20203;SDS011;10261;49.010;12.034;2022-10-23T00:26:32;6.90;;;6.20;;
20203;SDS011;10261;49.010;12.034;2022-10-23T00:27:36;7.57;;;6.47;;
20203;SDS011;10261;49.010;12.034;2022-10-23T00:28:38;6.75;;;6.15;;
20203;SDS011;10261;49.010;12.034;2022-10-23T00:29:41;7.07;;;6.30;;
20203;SDS011;10261;49.010;12.034;2022-10-23T00:30:44;7.35;;;5.97;;
20203;SDS011;10261;49.010;12.034;2022-10-23T00:31:47;9.77;;;6.25;;
20203;SDS011;10261;49.010;12.034;2022-10-23T00:32:49;7.53;;;6.60;;
20203;SDS011;10261;49.010;12.034;2022-10-23T00:33:52;9.60;;;6.65;;
20203;SDS011;10261;49.010;12.034;2022-10-23T00:34:54;6.95;;;5.65;;
20203;SDS011;10261;49.010;12.034;2022-10-23T00:35:57;8.27;;;6.10;;
20203;SDS011;10261;49.010;12.034;2022-10-23T00:37:01;7.65;;;6.25;;
20203;SDS011;10261;49.010;12.034;2022-10-23T00:38:04;8.00;;;6.75;;
20203;SDS011;10261;49.010;12.034;2022-10-23T00:39:06;8.38;;;6.10;;
20203;SDS011;10261;49.010;12.034;2022-10-23T00:40:09;7.43;;;6.15;;
20203;SDS011;10261;49.010;12.034;2022-10-23T00:41:14;7.57;;;6.03;;
20203;SDS011;10261;49.010;12.034;2022-10-23T00:42:18;9.13;;;6.28;;
20203;SDS011;10261;49.010;12.034;2022-10-23T00:43:22;7.65;;;6.63;;
20203;SDS011;10261;49.010;12.034;2022-10-23T00:46:18;7.13;;;6.00;;
20203;SDS011;10261;49.010;12.034;2022-10-23T00:47:21;7.22;;;6.13;;
20203;SDS011;10261;49.010;12.034;2022-10-23T00:48:23;6.88;;;5.93;;
20203;SDS011;10261;49.010;12.034;2022-10-23T00:49:28;6.97;;;6.15;;
20203;SDS011;10261;49.010;12.034;2022-10-23T00:50:34;7.32;;;6.25;;
20203;SDS011;10261;49.010;12.034;2022-10-23T00:51:38;6.50;;;5.65;;
20203;SDS011;10261;49.010;12.034;2022-10-23T00:52:46;6.13;;;5.53;;
20203;SDS011;10261;49.010;12.034;2022-10-23T00:53:53;6.72;;;6.10;;
20203;SDS011;10261;49.010;12.034;2022-10-23T00:55:18;11.73;;;5.93;;
20203;SDS011;10261;49.010;12.034;2022-10-23T00:56:24;7.43;;;6.68;;
20203;SDS011;10261;49.010;12.034;2022-10-23T00:57:27;7.40;;;6.40;;
20203;SDS011;10261;49.010;12.034;2022-10-23T00:58:30;12.05;;;6.18;;
20203;SDS011;10261;49.010;12.034;2022-10-23T00:59:33;5.95;;;5.38;;
20203;SDS011;10261;49.010;12.034;2022-10-23T01:00:41;6.90;;;6.15;;
20203;SDS011;10261;49.010;12.034;2022-10-23T01:01:44;6.60;;;5.80;;
20203;SDS011;10261;49.010;12.034;2022-10-23T01:02:48;6.50;;;4.90;;
20203;SDS011;10261;49.010;12.034;2022-10-23T01:03:51;6.45;;;5.85;;
20203;SDS011;10261;49.010;12.034;2022-10-23T01:04:54;5.72;;;5.13;;
20203;SDS011;10261;49.010;12.034;2022-10-23T01:05:59;6.80;;;5.85;;
20203;SDS011;10261;49.010;12.034;2022-10-23T01:07:12;7.63;;;5.80;;
20203;SDS011;10261;49.010;12.034;2022-10-23T01:08:24;7.13;;;6.22;;
20203;SDS011;10261;49.010;12.034;2022-10-23T01:09:34;6.05;;;5.53;;
20203;SDS011;10261;49.010;12.034;2022-10-23T01:10:41;6.50;;;5.85;;
20203;SDS011;10261;49.010;12.034;2022-10-23T01:11:47;6.88;;;6.28;;
20203;SDS011;10261;49.010;12.034;2022-10-23T01:12:54;7.68;;;5.90;;
20203;SDS011;10261;49.010;12.034;2022-10-23T01:14:05;7.00;;;5.15;;
20203;SDS011;10261;49.010;12.034;2022-10-23T01:15:17;5.95;;;5.35;;
20203;SDS011;10261;49.010;12.034;2022-10-23T01:16:26;5.93;;;5.15;;
20203;SDS011;10261;49.010;12.034;2022-10-23T01:17:34;6.35;;;5.75;;
20203;SDS011;10261;49.010;12.034;2022-10-23T01:18:45;5.60;;;5.10;;
20203;SDS011;10261;49.010;12.034;2022-10-23T01:19:55;5.95;;;5.43;;
20203;SDS011;10261;49.010;12.034;2022-10-23T01:21:09;7.05;;;5.20;;
20203;SDS011;10261;49.010;12.034;2022-10-23T01:22:19;7.93;;;6.07;;
20203;SDS011;10261;49.010;12.034;2022-10-23T01:25:09;6.35;;;4.95;;
20203;SDS011;10261;49.010;12.034;2022-10-23T01:26:29;5.72;;;5.03;;
20203;SDS011;10261;49.010;12.034;2022-10-23T01:27:47;6.25;;;5.65;;
20203;SDS011;10261;49.010;12.034;2022-10-23T01:28:54;6.55;;;5.68;;
20203;SDS011;10261;49.010;12.034;2022-10-23T01:30:03;10.25;;;6.10;;
20203;SDS011;10261;49.010;12.034;2022-10-23T01:31:08;7.00;;;5.78;;
20203;SDS011;10261;49.010;12.034;2022-10-23T01:32:20;7.90;;;5.35;;
20203;SDS011;10261;49.010;12.034;2022-10-23T01:33:28;5.93;;;5.43;;
20203;SDS011;10261;49.010;12.034;2022-10-23T01:34:36;6.38;;;5.30;;
20203;SDS011;10261;49.010;12.034;2022-10-23T01:35:47;7.10;;;6.20;;
20203;SDS011;10261;49.010;12.034;2022-10-23T01:36:53;6.28;;;5.68;;
20203;SDS011;10261;49.010;12.034;2022-10-23T01:37:59;7.20;;;5.75;;
20203;SDS011;10261;49.010;12.034;2022-10-23T01:39:07;5.95;;;5.18;;
20203;SDS011;10261;49.010;12.034;2022-10-23T01:40:17;7.43;;;5.50;;
20203;SDS011;10261;49.010;12.034;2022-10-23T01:41:27;6.25;;;5.65;;
20203;SDS011;10261;49.010;12.034;2022-10-23T01:42:32;5.93;;;5.32;;
20203;SDS011;10261;49.010;12.034;2022-10-23T01:43:42;6.50;;;5.90;;
20203;SDS011;10261;49.010;12.034;2022-10-23T01:44:48;6.82;;;5.93;;
20203;SDS011;10261;49.010;12.034;2022-10-23T01:45:55;5.57;;;5.07;;
20203;SDS011;10261;49.010;12.034;2022-10-23T01:47:01;6.47;;;5.50;;
20203;SDS011;10261;49.010;12.034;2022-10-23T01:48:07;6.93;;;5.95;;
20203;SDS011;10261;49.010;12.034;2022-10-23T01:49:12;6.00;;;5.40;;
20203;SDS011;10261;49.010;12.034;2022-10-23T01:50:16;6.75;;;6.10;;
20203;SDS011;10261;49.010;12.034;2022-10-23T01:51:20;6.93;;;5.50;;
20203;SDS011;10261;49.010;12.034;2022-10-23T01:52:27;7.20;;;6.00;;
20203;SDS011;10261;49.010;12.034;2022-10-23T01:53:29;8.63;;;6.20;;
20203;SDS011;10261;49.010;12.034;2022-10-23T01:54:37;6.18;;;5.43;;
20203;SDS011;10261;49.010;12.034;2022-10-23T01:55:43;6.32;;;5.05;;
20203;SDS011;10261;49.010;12.034;2022-10-23T01:56:47;7.03;;;6.00;;
20203;SDS011;10261;49.010;12.034;2022-10-23T01:57:52;6.35;;;5.70;;
20203;SDS011;10261;49.010;12.034;2022-10-23T01:58:59;8.35;;;5.63;;
20203;SDS011;10261;49.010;12.034;2022-10-23T02:00:06;5.55;;;5.05;;
20203;SDS011;10261;49.010;12.034;2022-10-23T02:01:11;7.00;;;6.30;;
20203;SDS011;10261;49.010;12.034;2022-10-23T02:02:15;7.70;;;6.63;;
20203;SDS011;10261;49.010;12.034;2022-10-23T02:03:21;8.70;;;6.00;;
20203;SDS011;10261;49.010;12.034;2022-10-23T02:04:26;6.30;;;5.70;;
20203;SDS011;10261;49.010;12.034;2022-10-23T02:05:32;6.25;;;5.65;;
20203;SDS011;10261;49.010;12.034;2022-10-23T02:06:34;7.47;;;6.35;;
20203;SDS011;10261;49.010;12.034;2022-10-23T02:07:37;10.32;;;6.72;;
20203;SDS011;10261;49.010;12.034;2022-10-23T02:08:40;7.07;;;5.90;;
20203;SDS011;10261;49.010;12.034;2022-10-23T02:09:43;6.35;;;5.75;;
20203;SDS011;10261;49.010;12.034;2022-10-23T02:10:48;8.20;;;6.35;;
20203;SDS011;10261;49.010;12.034;2022-10-23T02:11:58;7.30;;;6.13;;
20203;SDS011;10261;49.010;12.034;2022-10-23T02:13:05;9.20;;;6.80;;
20203;SDS011;10261;49.010;12.034;2022-10-23T02:14:15;7.35;;;6.15;;
20203;SDS011;10261;49.010;12.034;2022-10-23T02:15:23;8.23;;;6.47;;
20203;SDS011;10261;49.010;12.034;2022-10-23T02:16:32;8.02;;;7.22;;
20203;SDS011;10261;49.010;12.034;2022-10-23T02:17:41;7.55;;;6.53;;
20203;SDS011;10261;49.010;12.034;2022-10-23T02:18:51;7.88;;;7.05;;
20203;SDS011;10261;49.010;12.034;2022-10-23T02:19:59;7.95;;;6.60;;
20203;SDS011;10261;49.010;12.034;2022-10-23T02:21:12;7.88;;;6.38;;
20203;SDS011;10261;49.010;12.034;2022-10-23T02:22:19;7.45;;;6.38;;
20203;SDS011;10261;49.010;12.034;2022-10-23T02:23:26;9.52;;;7.03;;
20203;SDS011;10261;49.010;12.034;2022-10-23T02:24:33;8.25;;;6.80;;
20203;SDS011;10261;49.010;12.034;2022-10-23T02:25:42;7.85;;;6.28;;
20203;SDS011;10261;49.010;12.034;2022-10-23T02:26:51;8.23;;;5.80;;
20203;SDS011;10261;49.010;12.034;2022-10-23T02:27:57;8.50;;;6.93;;
20203;SDS011;10261;49.010;12.034;2022-10-23T02:29:04;7.25;;;6.43;;
20203;SDS011;10261;49.010;12.034;2022-10-23T02:30:13;9.52;;;7.30;;
20203;SDS011;10261;49.010;12.034;2022-10-23T02:31:17;7.00;;;5.97;;
20203;SDS011;10261;49.010;12.034;2022-10-23T02:32:23;7.78;;;6.32;;
20203;SDS011;10261;49.010;12.034;2022-10-23T02:33:28;8.85;;;6.60;;
20203;SDS011;10261;49.010;12.034;2022-10-23T02:34:32;6.90;;;6.13;;
20203;SDS011;10261;49.010;12.034;2022-10-23T02:35:35;8.00;;;7.13;;
20203;SDS011;10261;49.010;12.034;2022-10-23T02:36:38;9.50;;;7.38;;
20203;SDS011;10261;49.010;12.034;2022-10-23T02:37:40;8.20;;;6.15;;
20203;SDS011;10261;49.010;12.034;2022-10-23T02:38:44;7.55;;;6.75;;
20203;SDS011;10261;49.010;12.034;2022-10-23T02:39:46;8.20;;;6.25;;
20203;SDS011;10261;49.010;12.034;2022-10-23T02:40:49;8.68;;;6.95;;
20203;SDS011;10261;49.010;12.034;2022-10-23T02:41:54;6.72;;;6.03;;
20203;SDS011;10261;49.010;12.034;2022-10-23T02:43:04;9.00;;;6.32;;
20203;SDS011;10261;49.010;12.034;2022-10-23T02:44:23;10.88;;;6.82;;
20203;SDS011;10261;49.010;12.034;2022-10-23T02:45:40;6.78;;;6.10;;
20203;SDS011;10261;49.010;12.034;2022-10-23T02:46:52;10.23;;;6.82;;
20203;SDS011;10261;49.010;12.034;2022-10-23T02:47:59;8.88;;;6.18;;
20203;SDS011;10261;49.010;12.034;2022-10-23T02:49:09;10.20;;;6.10;;
20203;SDS011;10261;49.010;12.034;2022-10-23T02:50:16;7.10;;;6.22;;
20203;SDS011;10261;49.010;12.034;2022-10-23T02:51:28;8.07;;;6.90;;
20203;SDS011;10261;49.010;12.034;2022-10-23T02:52:38;7.00;;;5.88;;
20203;SDS011;10261;49.010;12.034;2022-10-23T02:53:47;7.65;;;6.30;;
20203;SDS011;10261;49.010;12.034;2022-10-23T02:55:03;9.57;;;7.78;;
20203;SDS011;10261;49.010;12.034;2022-10-23T02:56:12;8.68;;;6.70;;
20203;SDS011;10261;49.010;12.034;2022-10-23T02:57:25;7.75;;;6.68;;
20203;SDS011;10261;49.010;12.034;2022-10-23T02:58:32;9.73;;;7.15;;
20203;SDS011;10261;49.010;12.034;2022-10-23T02:59:42;8.20;;;6.60;;
20203;SDS011;10261;49.010;12.034;2022-10-23T03:00:50;7.30;;;6.60;;
20203;SDS011;10261;49.010;12.034;2022-10-23T03:01:57;7.72;;;6.93;;
20203;SDS011;10261;49.010;12.034;2022-10-23T03:03:05;6.40;;;5.80;;
20203;SDS011;10261;49.010;12.034;2022-10-23T03:04:13;7.45;;;6.55;;
20203;SDS011;10261;49.010;12.034;2022-10-23T03:05:17;7.50;;;6.18;;
20203;SDS011;10261;49.010;12.034;2022-10-23T03:06:23;7.97;;;6.13;;
20203;SDS011;10261;49.010;12.034;2022-10-23T03:07:26;8.40;;;7.20;;
20203;SDS011;10261;49.010;12.034;2022-10-23T03:08:28;7.10;;;6.40;;
20203;SDS011;10261;49.010;12.034;2022-10-23T03:09:31;8.57;;;7.00;;
20203;SDS011;10261;49.010;12.034;2022-10-23T03:10:33;7.25;;;5.97;;
20203;SDS011;10261;49.010;12.034;2022-10-23T03:11:36;8.27;;;7.45;;
20203;SDS011;10261;49.010;12.034;2022-10-23T03:12:38;8.93;;;6.85;;
20203;SDS011;10261;49.010;12.034;2022-10-23T03:13:41;9.73;;;7.63;;
20203;SDS011;10261;49.010;12.034;2022-10-23T03:14:44;9.35;;;6.88;;
20203;SDS011;10261;49.010;12.034;2022-10-23T03:15:46;8.07;;;6.70;;
20203;SDS011;10261;49.010;12.034;2022-10-23T03:16:51;7.88;;;6.78;;
20203;SDS011;10261;49.010;12.034;2022-10-23T03:17:52;7.50;;;6.80;;
20203;SDS011;10261;49.010;12.034;2022-10-23T03:18:56;7.32;;;5.97;;
20203;SDS011;10261;49.010;12.034;2022-10-23T03:19:58;6.95;;;6.22;;
20203;SDS011;10261;49.010;12.034;2022-10-23T03:21:01;6.93;;;6.22;;
20203;SDS011;10261;49.010;12.034;2022-10-23T03:22:03;7.10;;;6.18;;
20203;SDS011;10261;49.010;12.034;2022-10-23T03:23:06;8.75;;;5.90;;
20203;SDS011;10261;49.010;12.034;2022-10-23T03:24:11;7.53;;;5.60;;
20203;SDS011;10261;49.010;12.034;2022-10-23T03:25:14;6.85;;;6.15;;
20203;SDS011;10261;49.010;12.034;2022-10-23T03:26:16;6.43;;;5.82;;
20203;SDS011;10261;49.010;12.034;2022-10-23T03:27:19;5.32;;;4.82;;
20203;SDS011;10261;49.010;12.034;2022-10-23T03:28:21;7.28;;;6.47;;
20203;SDS011;10261;49.010;12.034;2022-10-23T03:29:25;6.85;;;6.15;;
20203;SDS011;10261;49.010;12.034;2022-10-23T03:30:27;7.25;;;5.88;;
20203;SDS011;10261;49.010;12.034;2022-10-23T03:31:30;8.00;;;5.82;;
20203;SDS011;10261;49.010;12.034;2022-10-23T03:32:33;5.43;;;4.93;;
20203;SDS011;10261;49.010;12.034;2022-10-23T03:33:36;11.25;;;5.70;;
20203;SDS011;10261;49.010;12.034;2022-10-23T03:34:38;5.97;;;5.40;;
20203;SDS011;10261;49.010;12.034;2022-10-23T03:35:41;6.57;;;5.40;;
20203;SDS011;10261;49.010;12.034;2022-10-23T03:36:43;6.82;;;4.95;;
20203;SDS011;10261;49.010;12.034;2022-10-23T03:37:46;6.30;;;5.70;;
20203;SDS011;10261;49.010;12.034;2022-10-23T03:38:48;8.55;;;6.18;;
20203;SDS011;10261;49.010;12.034;2022-10-23T03:39:51;7.32;;;5.70;;
20203;SDS011;10261;49.010;12.034;2022-10-23T03:40:54;6.65;;;5.88;;
20203;SDS011;10261;49.010;12.034;2022-10-23T03:41:55;6.22;;;5.63;;
20203;SDS011;10261;49.010;12.034;2022-10-23T03:42:58;7.72;;;6.20;;
20203;SDS011;10261;49.010;12.034;2022-10-23T03:44:01;6.38;;;5.70;;
20203;SDS011;10261;49.010;12.034;2022-10-23T03:45:05;7.13;;;6.05;;
20203;SDS011;10261;49.010;12.034;2022-10-23T03:46:08;6.03;;;5.32;;
20203;SDS011;10261;49.010;12.034;2022-10-23T03:47:13;5.50;;;4.97;;
20203;SDS011;10261;49.010;12.034;2022-10-23T03:48:17;8.95;;;6.50;;
20203;SDS011;10261;49.010;12.034;2022-10-23T03:49:19;6.43;;;5.82;;
20203;SDS011;10261;49.010;12.034;2022-10-23T03:50:22;8.40;;;6.15;;
20203;SDS011;10261;49.010;12.034;2022-10-23T03:51:25;5.43;;;4.93;;
20203;SDS011;10261;49.010;12.034;2022-10-23T03:52:28;5.82;;;5.32;;
20203;SDS011;10261;49.010;12.034;2022-10-23T03:53:30;7.45;;;5.68;;
20203;SDS011;10261;49.010;12.034;2022-10-23T03:54:33;6.10;;;5.50;;
20203;SDS011;10261;49.010;12.034;2022-10-23T03:55:35;8.07;;;5.80;;
20203;SDS011;10261;49.010;12.034;2022-10-23T03:56:38;7.50;;;6.35;;
20203;SDS011;10261;49.010;12.034;2022-10-23T03:57:40;5.95;;;5.10;;
20203;SDS011;10261;49.010;12.034;2022-10-23T03:58:43;6.72;;;5.88;;
20203;SDS011;10261;49.010;12.034;2022-10-23T03:59:45;6.85;;;6.18;;
20203;SDS011;10261;49.010;12.034;2022-10-23T04:00:48;9.60;;;6.72;;
20203;SDS011;10261;49.010;12.034;2022-10-23T04:01:50;7.32;;;6.30;;
20203;SDS011;10261;49.010;12.034;2022-10-23T04:02:53;7.28;;;5.53;;
20203;SDS011;10261;49.010;12.034;2022-10-23T04:03:57;9.50;;;7.47;;
20203;SDS011;10261;49.010;12.034;2022-10-23T04:05:00;6.38;;;5.32;;
20203;SDS011;10261;49.010;12.034;2022-10-23T04:06:02;6.68;;;5.60;;
20203;SDS011;10261;49.010;12.034;2022-10-23T04:07:05;7.28;;;5.55;;
20203;SDS011;10261;49.010;12.034;2022-10-23T04:08:07;6.18;;;5.38;;
20203;SDS011;10261;49.010;12.034;2022-10-23T04:09:10;6.72;;;5.80;;
20203;SDS011;10261;49.010;12.034;2022-10-23T04:10:17;6.50;;;5.90;;
20203;SDS011;10261;49.010;12.034;2022-10-23T04:11:20;7.95;;;5.32;;
20203;SDS011;10261;49.010;12.034;2022-10-23T04:12:22;6.35;;;5.65;;
20203;SDS011;10261;49.010;12.034;2022-10-23T04:13:25;6.65;;;5.10;;
20203;SDS011;10261;49.010;12.034;2022-10-23T04:14:27;6.20;;;5.60;;
20203;SDS011;10261;49.010;12.034;2022-10-23T04:15:30;5.25;;;4.75;;
20203;SDS011;10261;49.010;12.034;2022-10-23T04:16:32;6.55;;;5.78;;
20203;SDS011;10261;49.010;12.034;2022-10-23T04:17:35;5.97;;;5.00;;
20203;SDS011;10261;49.010;12.034;2022-10-23T04:18:38;7.50;;;6.45;;
20203;SDS011;10261;49.010;12.034;2022-10-23T04:19:43;6.47;;;5.20;;
20203;SDS011;10261;49.010;12.034;2022-10-23T04:20:46;6.28;;;5.65;;
20203;SDS011;10261;49.010;12.034;2022-10-23T04:21:49;6.15;;;4.95;;
20203;SDS011;10261;49.010;12.034;2022-10-23T04:22:52;5.50;;;4.70;;
20203;SDS011;10261;49.010;12.034;2022-10-23T04:23:54;7.63;;;6.07;;
20203;SDS011;10261;49.010;12.034;2022-10-23T04:24:57;5.50;;;5.00;;
20203;SDS011;10261;49.010;12.034;2022-10-23T04:25:59;6.32;;;5.50;;
20203;SDS011;10261;49.010;12.034;2022-10-23T04:27:02;8.65;;;5.70;;
20203;SDS011;10261;49.010;12.034;2022-10-23T04:28:04;7.07;;;5.70;;
20203;SDS011;10261;49.010;12.034;2022-10-23T04:29:07;6.13;;;4.90;;
20203;SDS011;10261;49.010;12.034;2022-10-23T04:30:10;5.95;;;5.35;;
20203;SDS011;10261;49.010;12.034;2022-10-23T04:31:13;6.95;;;5.60;;
20203;SDS011;10261;49.010;12.034;2022-10-23T04:32:15;6.78;;;5.53;;
20203;SDS011;10261;49.010;12.034;2022-10-23T04:33:18;5.45;;;4.50;;
20203;SDS011;10261;49.010;12.034;2022-10-23T04:34:20;6.32;;;5.45;;
20203;SDS011;10261;49.010;12.034;2022-10-23T04:35:25;5.65;;;5.05;;
20203;SDS011;10261;49.010;12.034;2022-10-23T04:36:27;6.15;;;4.13;;
20203;SDS011;10261;49.010;12.034;2022-10-23T04:37:30;4.95;;;4.47;;
20203;SDS011;10261;49.010;12.034;2022-10-23T04:38:32;4.72;;;4.20;;
20203;SDS011;10261;49.010;12.034;2022-10-23T04:39:35;6.03;;;4.03;;
20203;SDS011;10261;49.010;12.034;2022-10-23T04:40:37;6.93;;;4.55;;
20203;SDS011;10261;49.010;12.034;2022-10-23T04:41:40;4.80;;;4.22;;
20203;SDS011;10261;49.010;12.034;2022-10-23T04:42:43;7.28;;;4.38;;
20203;SDS011;10261;49.010;12.034;2022-10-23T04:43:45;4.00;;;3.65;;
20203;SDS011;10261;49.010;12.034;2022-10-23T04:44:48;3.97;;;3.58;;
20203;SDS011;10261;49.010;12.034;2022-10-23T04:45:50;4.85;;;3.72;;
20203;SDS011;10261;49.010;12.034;2022-10-23T04:46:53;4.63;;;4.00;;
20203;SDS011;10261;49.010;12.034;2022-10-23T04:47:55;4.78;;;4.38;;
20203;SDS011;10261;49.010;12.034;2022-10-23T04:48:58;5.10;;;4.40;;
20203;SDS011;10261;49.010;12.034;2022-10-23T04:50:00;4.72;;;4.25;;
20203;SDS011;10261;49.010;12.034;2022-10-23T04:51:04;5.97;;;4.75;;
20203;SDS011;10261;49.010;12.034;2022-10-23T04:52:06;4.95;;;4.03;;
20203;SDS011;10261;49.010;12.034;2022-10-23T04:53:09;5.00;;;4.35;;
20203;SDS011;10261;49.010;12.034;2022-10-23T04:54:11;4.43;;;3.60;;
20203;SDS011;10261;49.010;12.034;2022-10-23T04:55:14;4.82;;;4.43;;
20203;SDS011;10261;49.010;12.034;2022-10-23T04:56:16;4.47;;;3.90;;
20203;SDS011;10261;49.010;12.034;2022-10-23T04:57:19;4.82;;;4.43;;
20203;SDS011;10261;49.010;12.034;2022-10-23T04:58:21;4.60;;;4.10;;
20203;SDS011;10261;49.010;12.034;2022-10-23T04:59:25;4.60;;;4.20;;
20203;SDS011;10261;49.010;12.034;2022-10-23T05:00:27;4.85;;;4.40;;
20203;SDS011;10261;49.010;12.034;2022-10-23T05:01:30;4.43;;;4.03;;
20203;SDS011;10261;49.010;12.034;2022-10-23T05:02:32;6.00;;;4.57;;
20203;SDS011;10261;49.010;12.034;2022-10-23T05:03:35;5.10;;;4.20;;
20203;SDS011;10261;49.010;12.034;2022-10-23T05:04:38;5.63;;;4.78;;
20203;SDS011;10261;49.010;12.034;2022-10-23T05:05:41;4.32;;;3.92;;
20203;SDS011;10261;49.010;12.034;2022-10-23T05:06:45;4.72;;;4.22;;
20203;SDS011;10261;49.010;12.034;2022-10-23T05:07:48;10.05;;;4.35;;
20203;SDS011;10261;49.010;12.034;2022-10-23T05:08:50;5.53;;;4.53;;
20203;SDS011;10261;49.010;12.034;2022-10-23T05:09:52;6.60;;;5.03;;
20203;SDS011;10261;49.010;12.034;2022-10-23T05:10:54;5.70;;;5.10;;
20203;SDS011;10261;49.010;12.034;2022-10-23T05:11:57;6.30;;;4.25;;
20203;SDS011;10261;49.010;12.034;2022-10-23T05:12:59;7.32;;;4.00;;
20203;SDS011;10261;49.010;12.034;2022-10-23T05:14:02;6.15;;;4.93;;
20203;SDS011;10261;49.010;12.034;2022-10-23T05:15:06;5.55;;;4.53;;
20203;SDS011;10261;49.010;12.034;2022-10-23T05:16:08;5.78;;;5.20;;
20203;SDS011;10261;49.010;12.034;2022-10-23T05:17:12;5.72;;;5.10;;
20203;SDS011;10261;49.010;12.034;2022-10-23T05:18:17;6.80;;;5.30;;
20203;SDS011;10261;49.010;12.034;2022-10-23T05:19:23;9.18;;;5.00;;
20203;SDS011;10261;49.010;12.034;2022-10-23T05:20:30;6.80;;;4.95;;
20203;SDS011;10261;49.010;12.034;2022-10-23T05:21:35;6.40;;;5.32;;
20203;SDS011;10261;49.010;12.034;2022-10-23T05:22:41;6.70;;;4.57;;
20203;SDS011;10261;49.010;12.034;2022-10-23T05:23:46;7.55;;;5.40;;
20203;SDS011;10261;49.010;12.034;2022-10-23T05:24:48;6.25;;;5.18;;
20203;SDS011;10261;49.010;12.034;2022-10-23T05:25:51;8.40;;;5.03;;
20203;SDS011;10261;49.010;12.034;2022-10-23T05:26:54;6.05;;;5.10;;
20203;SDS011;10261;49.010;12.034;2022-10-23T05:27:57;6.53;;;5.28;;
20203;SDS011;10261;49.010;12.034;2022-10-23T05:29:00;8.18;;;4.85;;
20203;SDS011;10261;49.010;12.034;2022-10-23T05:30:02;6.13;;;5.03;;
20203;SDS011;10261;49.010;12.034;2022-10-23T05:31:06;8.77;;;5.93;;
20203;SDS011;10261;49.010;12.034;2022-10-23T05:32:08;6.47;;;5.25;;
20203;SDS011;10261;49.010;12.034;2022-10-23T05:33:13;10.77;;;5.63;;
20203;SDS011;10261;49.010;12.034;2022-10-23T05:34:16;7.88;;;6.03;;
20203;SDS011;10261;49.010;12.034;2022-10-23T05:35:21;5.90;;;5.30;;
20203;SDS011;10261;49.010;12.034;2022-10-23T05:36:24;11.32;;;5.70;;
20203;SDS011;10261;49.010;12.034;2022-10-23T05:37:28;8.93;;;6.25;;
20203;SDS011;10261;49.010;12.034;2022-10-23T05:38:31;7.82;;;5.00;;
20203;SDS011;10261;49.010;12.034;2022-10-23T05:39:36;8.25;;;5.50;;
20203;SDS011;10261;49.010;12.034;2022-10-23T05:40:38;5.75;;;5.07;;
20203;SDS011;10261;49.010;12.034;2022-10-23T05:41:41;8.68;;;4.90;;
20203;SDS011;10261;49.010;12.034;2022-10-23T05:42:43;8.02;;;5.65;;
20203;SDS011;10261;49.010;12.034;2022-10-23T05:43:46;6.15;;;5.13;;
20203;SDS011;10261;49.010;12.034;2022-10-23T05:44:48;7.22;;;5.30;;
20203;SDS011;10261;49.010;12.034;2022-10-23T05:45:51;8.30;;;5.20;;
20203;SDS011;10261;49.010;12.034;2022-10-23T05:46:53;6.47;;;5.18;;
20203;SDS011;10261;49.010;12.034;2022-10-23T05:47:56;6.30;;;4.82;;
20203;SDS011;10261;49.010;12.034;2022-10-23T05:49:18;6.55;;;4.95;;
20203;SDS011;10261;49.010;12.034;2022-10-23T05:50:21;8.20;;;5.85;;
20203;SDS011;10261;49.010;12.034;2022-10-23T05:51:23;7.65;;;6.10;;
20203;SDS011;10261;49.010;12.034;2022-10-23T05:52:26;6.45;;;5.07;;
20203;SDS011;10261;49.010;12.034;2022-10-23T05:53:28;7.00;;;6.10;;
20203;SDS011;10261;49.010;12.034;2022-10-23T05:54:33;8.20;;;5.95;;
20203;SDS011;10261;49.010;12.034;2022-10-23T05:55:35;7.75;;;5.47;;
20203;SDS011;10261;49.010;12.034;2022-10-23T05:56:38;7.10;;;5.95;;
20203;SDS011;10261;49.010;12.034;2022-10-23T05:57:41;8.07;;;5.60;;
20203;SDS011;10261;49.010;12.034;2022-10-23T05:58:45;7.95;;;5.90;;
20203;SDS011;10261;49.010;12.034;2022-10-23T05:59:47;9.98;;;5.85;;
20203;SDS011;10261;49.010;12.034;2022-10-23T06:00:50;10.43;;;5.93;;
20203;SDS011;10261;49.010;12.034;2022-10-23T06:01:52;7.22;;;5.53;;
20203;SDS011;10261;49.010;12.034;2022-10-23T06:02:57;7.03;;;5.72;;
20203;SDS011;10261;49.010;12.034;2022-10-23T06:04:00;7.50;;;5.05;;
20203;SDS011;10261;49.010;12.034;2022-10-23T06:05:03;9.50;;;6.10;;
20203;SDS011;10261;49.010;12.034;2022-10-23T06:06:06;6.97;;;5.53;;
20203;SDS011;10261;49.010;12.034;2022-10-23T06:07:09;7.70;;;5.88;;
20203;SDS011;10261;49.010;12.034;2022-10-23T06:08:11;9.68;;;6.00;;
20203;SDS011;10261;49.010;12.034;2022-10-23T06:09:14;6.47;;;4.90;;
20203;SDS011;10261;49.010;12.034;2022-10-23T06:10:18;9.45;;;5.68;;
20203;SDS011;10261;49.010;12.034;2022-10-23T06:11:21;7.57;;;5.45;;
20203;SDS011;10261;49.010;12.034;2022-10-23T06:12:23;7.05;;;5.85;;
20203;SDS011;10261;49.010;12.034;2022-10-23T06:13:26;6.00;;;5.40;;
20203;SDS011;10261;49.010;12.034;2022-10-23T06:14:28;10.00;;;5.85;;
20203;SDS011;10261;49.010;12.034;2022-10-23T06:15:31;7.63;;;5.90;;
20203;SDS011;10261;49.010;12.034;2022-10-23T06:16:33;8.27;;;6.30;;
20203;SDS011;10261;49.010;12.034;2022-10-23T06:17:36;7.78;;;6.22;;
20203;SDS011;10261;49.010;12.034;2022-10-23T06:18:38;7.78;;;5.85;;
20203;SDS011;10261;49.010;12.034;2022-10-23T06:19:42;15.98;;;7.03;;
20203;SDS011;10261;49.010;12.034;2022-10-23T06:20:45;10.18;;;6.68;;
20203;SDS011;10261;49.010;12.034;2022-10-23T06:21:48;10.50;;;6.65;;
20203;SDS011;10261;49.010;12.034;2022-10-23T06:22:50;9.75;;;7.22;;
20203;SDS011;10261;49.010;12.034;2022-10-23T06:23:53;8.68;;;6.15;;
20203;SDS011;10261;49.010;12.034;2022-10-23T06:24:55;8.63;;;7.00;;
20203;SDS011;10261;49.010;12.034;2022-10-23T06:26:00;8.65;;;6.40;;